createdAt,value
2022-12-24T00:01:38.352Z,87.33
2022-12-24T00:04:07.567Z,87.13
2022-12-24T00:06:36.004Z,88.05
2022-12-24T00:09:04.787Z,86.56
2022-12-24T00:11:33.753Z,86.65
2022-12-24T00:14:01.766Z,86.54
2022-12-24T00:16:29.795Z,86.41
2022-12-24T00:18:59.790Z,86.42
2022-12-24T00:21:28.359Z,85.98
2022-12-24T00:23:56.545Z,85.87
2022-12-24T00:26:25.097Z,85.79
2022-12-24T00:28:53.450Z,85.56
2022-12-24T00:31:21.869Z,84.86
2022-12-24T00:33:51.395Z,84.59
2022-12-24T00:36:22.032Z,84.43
2022-12-24T00:38:50.373Z,84.67
2022-12-24T00:41:29.638Z,84.27
2022-12-24T00:43:59.777Z,84.41
2022-12-24T00:46:30.217Z,83.40
2022-12-24T00:48:58.708Z,83.81
2022-12-24T00:51:29.129Z,83.64
2022-12-24T00:53:57.829Z,83.13
2022-12-24T00:56:26.182Z,82.94
2022-12-24T00:58:55.292Z,81.83
2022-12-24T01:01:23.805Z,82.97
2022-12-24T01:03:52.350Z,82.84
2022-12-24T01:06:22.468Z,83.88
2022-12-24T01:08:53.229Z,82.87
2022-12-24T01:11:21.399Z,82.88
2022-12-24T01:13:50.244Z,82.35
2022-12-24T01:16:21.056Z,83.30
2022-12-24T01:18:49.921Z,83.07
2022-12-24T01:21:18.703Z,83.19
2022-12-24T01:23:47.407Z,83.28
2022-12-24T01:26:17.008Z,82.18
2022-12-24T01:28:45.714Z,82.66
2022-12-24T01:31:15.411Z,83.33
2022-12-24T01:33:43.589Z,82.85
2022-12-24T01:36:12.808Z,82.47
2022-12-24T01:38:41.526Z,83.00
2022-12-24T01:41:36.206Z,82.22
2022-12-24T01:44:33.234Z,81.40
2022-12-24T01:47:10.548Z,81.65
2022-12-24T01:49:40.738Z,80.85
2022-12-24T01:52:12.719Z,79.52
2022-12-24T01:54:44.301Z,79.94
2022-12-24T01:57:18.413Z,78.67
2022-12-24T01:59:50.863Z,78.82
2022-12-24T02:02:20.794Z,79.14
2022-12-24T02:04:56.041Z,80.31
2022-12-24T02:07:25.430Z,79.74
2022-12-24T02:09:57.375Z,80.11
2022-12-24T02:12:29.195Z,79.75
2022-12-24T02:14:57.902Z,79.29
2022-12-24T02:17:33.352Z,79.91
2022-12-24T02:20:52.518Z,80.04
2022-12-24T02:23:49.637Z,79.73
2022-12-24T02:26:35.711Z,79.07
2022-12-24T02:29:26.969Z,79.10
2022-12-24T02:32:02.784Z,79.79
2022-12-24T02:34:39.251Z,79.71
2022-12-24T02:37:15.907Z,79.16
2022-12-24T02:39:51.963Z,79.83
2022-12-24T02:42:25.442Z,80.83
2022-12-24T02:44:59.723Z,80.83
2022-12-24T02:47:33.661Z,80.56
2022-12-24T02:50:04.125Z,81.25
2022-12-24T02:52:34.511Z,82.05
2022-12-24T02:55:06.321Z,81.66
2022-12-24T02:57:48.548Z,81.98
2022-12-24T03:00:20.076Z,81.86
2022-12-24T03:03:01.538Z,81.17
2022-12-24T03:05:36.813Z,81.28
2022-12-24T03:08:12.412Z,82.26
2022-12-24T03:10:48.399Z,82.10
2022-12-24T03:13:18.693Z,82.50
2022-12-24T03:15:48.648Z,83.25
2022-12-24T03:18:21.366Z,81.96
2022-12-24T03:20:58.407Z,81.35
2022-12-24T03:23:26.521Z,82.30
2022-12-24T03:25:54.859Z,82.44
2022-12-24T03:28:28.608Z,82.19
2022-12-24T03:30:57.295Z,81.75
2022-12-24T03:33:27.076Z,82.30
2022-12-24T03:35:55.489Z,81.56
2022-12-24T03:38:24.112Z,81.62
2022-12-24T03:40:52.365Z,82.20
2022-12-24T03:43:20.940Z,81.13
2022-12-24T03:45:49.334Z,82.36
2022-12-24T03:48:17.813Z,81.55
2022-12-24T03:50:47.357Z,81.99
2022-12-24T03:53:15.783Z,81.81
2022-12-24T03:55:43.783Z,81.74
2022-12-24T03:58:12.177Z,81.91
2022-12-24T04:00:40.409Z,81.23
2022-12-24T04:03:09.117Z,81.09
2022-12-24T04:05:37.230Z,80.31
2022-12-24T04:08:06.867Z,79.87
2022-12-24T04:10:34.638Z,79.75
2022-12-24T04:13:03.308Z,79.82
2022-12-24T04:15:31.027Z,79.79
2022-12-24T04:17:59.594Z,80.03
2022-12-24T04:20:29.808Z,79.45
2022-12-24T04:22:57.880Z,80.01
2022-12-24T04:25:27.034Z,78.44
2022-12-24T04:27:54.998Z,78.38
2022-12-24T04:30:23.205Z,79.15
2022-12-24T04:32:52.574Z,77.81
2022-12-24T04:35:20.416Z,79.08
2022-12-24T04:37:48.226Z,79.31
2022-12-24T04:40:16.019Z,77.83
2022-12-24T04:42:45.420Z,81.00
2022-12-24T04:45:13.500Z,80.43
2022-12-24T04:47:41.706Z,81.08
2022-12-24T04:50:10.364Z,81.27
2022-12-24T04:52:42.445Z,82.10
2022-12-24T04:55:11.338Z,82.50
2022-12-24T04:57:39.773Z,82.27
2022-12-24T05:00:10.780Z,81.76
2022-12-24T05:02:39.607Z,81.88
2022-12-24T05:05:08.316Z,82.18
2022-12-24T05:07:37.273Z,81.62
2022-12-24T05:10:06.584Z,81.64
2022-12-24T05:12:34.828Z,81.77
2022-12-24T05:15:04.632Z,81.75
2022-12-24T05:17:34.265Z,81.46
2022-12-24T05:20:02.239Z,82.06
2022-12-24T05:22:48.098Z,81.30
2022-12-24T05:25:33.484Z,80.61
2022-12-24T05:28:01.295Z,81.08
2022-12-24T05:30:29.427Z,79.99
2022-12-24T05:32:59.059Z,80.87
2022-12-24T05:35:27.325Z,81.44
2022-12-24T05:37:59.203Z,82.22
2022-12-24T05:40:27.180Z,81.66
2022-12-24T05:42:55.475Z,81.87
2022-12-24T05:45:23.432Z,81.07
2022-12-24T05:47:51.905Z,82.74
2022-12-24T05:50:21.353Z,82.29
2022-12-24T05:52:49.423Z,82.33
2022-12-24T05:55:17.567Z,81.58
2022-12-24T05:57:45.367Z,81.21
2022-12-24T06:00:14.811Z,81.39
2022-12-24T06:02:43.114Z,81.54
2022-12-24T06:05:11.398Z,81.67
2022-12-24T06:07:41.394Z,81.92
2022-12-24T06:10:10.801Z,81.21
2022-12-24T06:12:39.877Z,81.72
2022-12-24T06:15:09.079Z,81.03
2022-12-24T06:17:37.513Z,81.76
2022-12-24T06:20:06.119Z,81.28
2022-12-24T06:22:34.909Z,81.65
2022-12-24T06:25:04.275Z,80.74
2022-12-24T06:27:32.440Z,80.68
2022-12-24T06:30:00.214Z,80.97
2022-12-24T06:32:28.428Z,81.51
2022-12-24T06:34:56.300Z,81.81
2022-12-24T06:37:24.176Z,81.34
2022-12-24T06:39:52.187Z,81.01
2022-12-24T06:42:21.490Z,82.04
2022-12-24T06:44:49.397Z,81.60
2022-12-24T06:47:17.885Z,82.56
2022-12-24T06:49:45.976Z,82.44
2022-12-24T06:52:14.149Z,82.55
2022-12-24T06:54:41.984Z,82.87
2022-12-24T06:57:09.914Z,82.81
2022-12-24T06:59:39.091Z,82.40
2022-12-24T07:02:07.202Z,83.00
2022-12-24T07:04:35.287Z,83.23
2022-12-24T07:07:03.752Z,83.57
2022-12-24T07:09:32.920Z,83.78
2022-12-24T07:12:01.037Z,84.40
2022-12-24T07:14:29.028Z,84.72
2022-12-24T07:16:59.490Z,85.92
2022-12-24T07:19:27.463Z,86.30
2022-12-24T07:21:55.236Z,86.44
2022-12-24T07:24:23.258Z,86.86
2022-12-24T07:26:51.126Z,87.29
2022-12-24T07:29:19.479Z,87.01
2022-12-24T07:31:47.631Z,87.29
2022-12-24T07:34:17.963Z,87.06
2022-12-24T07:36:46.122Z,87.35
2022-12-24T07:39:14.331Z,86.68
2022-12-24T07:41:42.123Z,86.61
2022-12-24T07:44:12.708Z,87.43
2022-12-24T07:46:42.656Z,87.02
2022-12-24T07:49:11.196Z,86.32
2022-12-24T07:51:40.616Z,86.28
2022-12-24T07:54:09.111Z,86.99
2022-12-24T07:56:37.166Z,85.97
2022-12-24T07:59:05.057Z,86.04
2022-12-24T08:01:33.163Z,85.76
2022-12-24T08:04:01.317Z,84.57
2022-12-24T08:06:29.124Z,84.67
2022-12-24T08:09:03.464Z,83.55
2022-12-24T08:11:31.567Z,84.17
2022-12-24T08:13:59.894Z,83.76
2022-12-24T08:16:27.949Z,83.80
2022-12-24T08:18:56.175Z,84.14
2022-12-24T08:21:26.507Z,83.29
2022-12-24T08:23:54.701Z,83.30
2022-12-24T08:26:23.978Z,85.03
2022-12-24T08:28:52.099Z,84.89
2022-12-24T08:31:19.988Z,84.60
2022-12-24T08:33:48.617Z,84.33
2022-12-24T08:36:16.759Z,84.49
2022-12-24T08:38:45.871Z,83.41
2022-12-24T08:41:14.280Z,83.89
2022-12-24T08:43:44.047Z,83.19
2022-12-24T08:46:12.358Z,83.66
2022-12-24T08:48:40.703Z,82.79
2022-12-24T08:51:09.702Z,82.33
2022-12-24T08:53:39.053Z,83.53
2022-12-24T08:56:09.885Z,83.61
2022-12-24T08:58:39.074Z,83.35
2022-12-24T09:01:14.395Z,83.63
2022-12-24T09:03:43.280Z,82.87
2022-12-24T09:06:11.671Z,82.81
2022-12-24T09:08:40.156Z,82.65
2022-12-24T09:11:10.177Z,83.28
2022-12-24T09:13:38.520Z,83.14
2022-12-24T09:16:08.342Z,82.62
2022-12-24T09:18:38.145Z,82.84
2022-12-24T09:21:08.662Z,82.49
2022-12-24T09:24:04.879Z,82.89
2022-12-24T09:26:33.190Z,82.79
2022-12-24T09:29:01.803Z,83.56
2022-12-24T09:31:30.365Z,82.58
2022-12-24T09:33:59.570Z,84.04
2022-12-24T09:36:27.749Z,85.32
2022-12-24T09:38:55.945Z,84.67
2022-12-24T09:41:38.040Z,84.76
2022-12-24T09:44:20.653Z,85.31
2022-12-24T09:46:51.277Z,84.96
2022-12-24T09:49:24.163Z,86.65
2022-12-24T09:51:56.810Z,86.51
2022-12-24T09:54:28.693Z,85.70
2022-12-24T09:57:02.709Z,85.99
2022-12-24T09:59:47.786Z,85.46
2022-12-24T10:02:19.964Z,86.18
2022-12-24T10:04:49.972Z,84.06
2022-12-24T10:07:33.098Z,84.79
2022-12-24T10:10:08.335Z,83.35
2022-12-24T10:12:49.354Z,81.45
2022-12-24T10:15:27.715Z,83.69
2022-12-24T10:18:11.048Z,84.15
2022-12-24T10:20:48.783Z,85.74
2022-12-24T10:23:25.016Z,85.36
2022-12-24T10:26:04.519Z,84.55
2022-12-24T10:28:40.242Z,86.94
2022-12-24T10:31:09.625Z,86.47
2022-12-24T10:33:42.935Z,87.33
2022-12-24T10:36:16.882Z,87.92
2022-12-24T10:38:45.606Z,90.15
2022-12-24T10:41:14.927Z,89.05
2022-12-24T10:43:46.591Z,89.36
2022-12-24T10:46:20.842Z,91.79
2022-12-24T10:48:56.335Z,91.75
2022-12-24T10:51:35.173Z,90.31
2022-12-24T10:54:08.645Z,90.69
2022-12-24T10:56:42.685Z,89.50
2022-12-24T10:59:25.035Z,88.95
2022-12-24T11:01:53.407Z,88.91
2022-12-24T11:04:23.523Z,90.02
2022-12-24T11:06:58.967Z,91.03
2022-12-24T11:09:32.639Z,90.32
2022-12-24T11:12:08.652Z,90.56
2022-12-24T11:14:40.934Z,90.30
2022-12-24T11:17:20.601Z,91.34
2022-12-24T11:19:50.731Z,91.32
2022-12-24T11:22:25.257Z,91.12
2022-12-24T11:25:02.011Z,90.18
2022-12-24T11:27:34.003Z,89.91
2022-12-24T11:30:28.238Z,90.23
2022-12-24T11:33:21.459Z,91.85
2022-12-24T11:35:53.773Z,91.88
2022-12-24T11:38:26.246Z,92.47
2022-12-24T11:41:02.114Z,90.76
2022-12-24T11:43:47.466Z,90.38
2022-12-24T11:46:22.067Z,88.23
2022-12-24T11:49:08.029Z,88.39
2022-12-24T11:51:37.561Z,88.95
2022-12-24T11:54:16.165Z,87.50
2022-12-24T11:56:49.214Z,88.73
2022-12-24T11:59:25.133Z,87.06
2022-12-24T12:01:59.584Z,87.66
2022-12-24T12:04:31.266Z,86.58
2022-12-24T12:07:02.964Z,86.09
2022-12-24T12:09:35.854Z,87.68
2022-12-24T12:12:12.161Z,87.36
2022-12-24T12:14:48.120Z,87.24
2022-12-24T12:17:29.531Z,85.17
2022-12-24T12:20:04.305Z,85.90
2022-12-24T12:22:40.478Z,84.98
2022-12-24T12:25:23.277Z,86.78
2022-12-24T12:27:55.793Z,86.55
2022-12-24T12:30:24.783Z,85.59
2022-12-24T12:33:00.862Z,86.03
2022-12-24T12:35:33.003Z,87.60
2022-12-24T12:38:04.312Z,88.08
2022-12-24T12:40:58.480Z,89.78
2022-12-24T12:43:44.761Z,89.69
2022-12-24T12:46:20.605Z,89.47
2022-12-24T12:49:03.260Z,89.07
2022-12-24T12:51:39.012Z,88.63
2022-12-24T12:54:25.405Z,89.83
2022-12-24T12:56:58.444Z,89.35
2022-12-24T12:59:34.181Z,88.57
2022-12-24T13:02:14.400Z,87.64
2022-12-24T13:05:20.213Z,88.17
2022-12-24T13:08:07.193Z,87.45
2022-12-24T13:11:06.955Z,87.61
2022-12-24T13:13:49.141Z,88.44
2022-12-24T13:16:36.778Z,88.14
2022-12-24T13:19:25.314Z,86.49
2022-12-24T13:21:56.809Z,87.13
2022-12-24T13:24:28.297Z,87.38
2022-12-24T13:27:07.344Z,87.30
2022-12-24T13:29:52.662Z,86.41
2022-12-24T13:32:49.740Z,87.66
2022-12-24T13:35:38.295Z,86.90
2022-12-24T13:38:45.747Z,87.96
2022-12-24T13:41:42.088Z,88.66
2022-12-24T13:44:19.675Z,88.95
2022-12-24T13:46:56.608Z,89.54
2022-12-24T13:49:30.633Z,89.07
2022-12-24T13:52:19.964Z,89.45
2022-12-24T13:55:01.492Z,89.99
2022-12-24T13:57:37.347Z,89.26
2022-12-24T14:00:23.479Z,89.36
2022-12-24T14:02:58.735Z,90.09
2022-12-24T14:05:35.490Z,88.80
2022-12-24T14:08:07.210Z,89.24
2022-12-24T14:10:41.303Z,89.97
2022-12-24T14:14:08.289Z,89.82
2022-12-24T14:16:46.316Z,90.56
2022-12-24T14:19:20.249Z,90.45
2022-12-24T14:21:55.899Z,90.46
2022-12-24T14:24:26.770Z,90.07
2022-12-24T14:26:58.626Z,90.90
2022-12-24T14:29:30.123Z,90.69
2022-12-24T14:31:59.882Z,90.66
2022-12-24T14:34:29.505Z,90.68
2022-12-24T14:36:59.199Z,90.78
2022-12-24T14:39:33.205Z,90.51
2022-12-24T14:42:18.479Z,91.10
2022-12-24T14:44:55.874Z,91.61
2022-12-24T14:47:32.236Z,91.28
2022-12-24T14:50:17.566Z,91.78
2022-12-24T14:53:07.316Z,91.68
2022-12-24T14:55:42.867Z,91.71
2022-12-24T14:58:24.201Z,91.32
2022-12-24T15:00:54.004Z,91.89
2022-12-24T15:03:25.273Z,91.48
2022-12-24T15:05:57.687Z,91.12
2022-12-24T15:08:31.232Z,92.25
2022-12-24T15:11:04.264Z,91.50
2022-12-24T15:13:37.347Z,91.30
2022-12-24T15:16:08.951Z,91.86
2022-12-24T15:18:40.125Z,92.17
2022-12-24T15:21:17.998Z,92.00
2022-12-24T15:23:49.408Z,91.47
2022-12-24T15:26:24.875Z,91.30
2022-12-24T15:29:01.965Z,91.26
2022-12-24T15:31:31.570Z,90.31
2022-12-24T15:34:00.803Z,90.30
2022-12-24T15:36:32.788Z,89.88
2022-12-24T15:39:03.564Z,90.74
2022-12-24T15:41:59.369Z,91.23
2022-12-24T15:44:28.508Z,92.27
2022-12-24T15:47:00.183Z,91.90
2022-12-24T15:49:29.276Z,92.31
2022-12-24T15:52:06.728Z,91.09
2022-12-24T15:54:36.185Z,90.78
2022-12-24T15:57:15.342Z,90.86
2022-12-24T15:59:44.096Z,91.77
2022-12-24T16:02:37.460Z,91.58
2022-12-24T16:05:42.274Z,91.90
2022-12-24T16:08:30.558Z,91.59
2022-12-24T16:11:16.207Z,91.65
2022-12-24T16:13:54.206Z,92.07
2022-12-24T16:16:31.694Z,93.23
2022-12-24T16:19:02.293Z,92.64
2022-12-24T16:21:32.758Z,92.47
2022-12-24T16:24:07.252Z,92.70
2022-12-24T16:26:35.869Z,92.04
2022-12-24T16:29:04.641Z,91.95
2022-12-24T16:31:35.624Z,91.93
2022-12-24T16:34:04.832Z,91.86
2022-12-24T16:36:33.466Z,91.47
2022-12-24T16:39:20.730Z,91.72
2022-12-24T16:42:06.171Z,92.04
2022-12-24T16:44:34.451Z,92.03
2022-12-24T16:47:02.604Z,91.69
2022-12-24T16:49:30.988Z,91.96
2022-12-24T16:51:59.045Z,91.84
2022-12-24T16:54:30.392Z,90.88
2022-12-24T16:57:21.429Z,91.02
2022-12-24T16:59:49.893Z,90.99
2022-12-24T17:02:20.237Z,91.39
2022-12-24T17:04:49.886Z,91.09
2022-12-24T17:07:20.547Z,91.34
2022-12-24T17:09:50.258Z,91.10
2022-12-24T17:12:18.920Z,90.58
2022-12-24T17:14:47.303Z,91.46
2022-12-24T17:17:22.179Z,92.13
2022-12-24T17:19:51.229Z,92.81
2022-12-24T17:22:19.921Z,92.10
2022-12-24T17:24:49.871Z,92.09
2022-12-24T17:27:18.038Z,91.75
2022-12-24T17:29:46.254Z,92.37
2022-12-24T17:32:14.388Z,92.22
2022-12-24T17:34:42.222Z,93.22
2022-12-24T17:37:10.247Z,93.25
2022-12-24T17:39:38.798Z,94.08
2022-12-24T17:42:08.493Z,94.34
2022-12-24T17:44:37.000Z,93.92
2022-12-24T17:47:05.474Z,93.65
2022-12-24T17:49:33.534Z,94.23
2022-12-24T17:52:01.525Z,93.99
2022-12-24T17:54:30.081Z,93.08
2022-12-24T17:56:59.623Z,93.19
2022-12-24T17:59:29.539Z,93.40
2022-12-24T18:01:57.637Z,94.22
2022-12-24T18:04:26.215Z,94.27
2022-12-24T18:07:01.682Z,93.62
2022-12-24T18:09:31.028Z,93.27
2022-12-24T18:11:58.877Z,92.97
2022-12-24T18:14:28.164Z,93.08
2022-12-24T18:16:56.217Z,92.65
2022-12-24T18:19:24.214Z,94.51
2022-12-24T18:21:52.774Z,93.61
2022-12-24T18:24:21.313Z,93.30
2022-12-24T18:26:49.530Z,92.23
2022-12-24T18:29:17.915Z,92.02
2022-12-24T18:31:47.736Z,93.18
2022-12-24T18:34:16.618Z,93.63
2022-12-24T18:36:47.188Z,93.42
2022-12-24T18:39:19.617Z,93.31
2022-12-24T18:41:47.785Z,93.05
2022-12-24T18:44:22.522Z,94.29
2022-12-24T18:46:54.154Z,94.26
2022-12-24T18:49:22.823Z,93.83
2022-12-24T18:51:50.940Z,93.04
2022-12-24T18:54:19.720Z,92.46
2022-12-24T18:56:47.876Z,92.99
2022-12-24T18:59:16.378Z,93.11
2022-12-24T19:01:44.664Z,93.22
2022-12-24T19:04:15.345Z,92.82
2022-12-24T19:06:50.722Z,94.63
2022-12-24T19:09:21.446Z,93.99
2022-12-24T19:11:49.741Z,93.93
2022-12-24T19:14:20.489Z,93.84
2022-12-24T19:16:48.621Z,93.22
2022-12-24T19:19:21.735Z,93.71
2022-12-24T19:21:49.723Z,93.78
2022-12-24T19:24:17.657Z,93.56
2022-12-24T19:26:45.443Z,93.49
2022-12-24T19:29:13.524Z,93.89
2022-12-24T19:31:44.269Z,93.55
2022-12-24T19:34:12.889Z,93.41
2022-12-24T19:36:42.278Z,93.42
2022-12-24T19:39:10.413Z,92.50
2022-12-24T19:41:38.670Z,92.42
2022-12-24T19:44:07.099Z,91.83
2022-12-24T19:46:38.154Z,92.52
2022-12-24T19:49:09.333Z,92.83
2022-12-24T19:51:37.779Z,93.55
2022-12-24T19:54:13.298Z,93.79
2022-12-24T19:56:44.687Z,93.31
2022-12-24T19:59:12.842Z,94.07
2022-12-24T20:01:40.912Z,93.23
2022-12-24T20:04:10.468Z,93.96
2022-12-24T20:06:39.401Z,93.18
2022-12-24T20:09:09.886Z,92.70
2022-12-24T20:11:37.899Z,92.86
2022-12-24T20:14:07.157Z,93.07
2022-12-24T20:16:35.860Z,92.54
2022-12-24T20:19:06.987Z,92.32
2022-12-24T20:21:35.517Z,92.23
2022-12-24T20:24:03.718Z,92.25
2022-12-24T20:26:33.115Z,92.19
2022-12-24T20:29:05.340Z,91.63
2022-12-24T20:31:33.856Z,92.01
2022-12-24T20:34:03.413Z,92.03
2022-12-24T20:36:32.297Z,92.29
2022-12-24T20:39:00.749Z,92.66
2022-12-24T20:41:30.732Z,92.38
2022-12-24T20:44:01.357Z,92.00
2022-12-24T20:46:31.164Z,92.38
2022-12-24T20:48:59.397Z,92.53
2022-12-24T20:51:28.999Z,92.90
2022-12-24T20:53:58.365Z,92.99
2022-12-24T20:56:26.982Z,93.72
2022-12-24T20:58:55.398Z,94.68
2022-12-24T21:01:28.508Z,94.39
2022-12-24T21:03:57.960Z,93.40
2022-12-24T21:06:26.504Z,93.03
2022-12-24T21:08:55.533Z,92.76
2022-12-24T21:11:41.681Z,92.88
2022-12-24T21:14:10.377Z,92.53
2022-12-24T21:16:41.198Z,92.34
2022-12-24T21:19:11.213Z,92.40
2022-12-24T21:21:39.694Z,92.62
2022-12-24T21:24:09.834Z,92.75
2022-12-24T21:26:38.553Z,92.63
2022-12-24T21:29:08.537Z,92.46
2022-12-24T21:31:37.269Z,92.14
2022-12-24T21:34:07.238Z,91.97
2022-12-24T21:36:35.176Z,92.04
2022-12-24T21:39:03.128Z,92.00
2022-12-24T21:41:30.915Z,92.42
2022-12-24T21:44:02.369Z,91.91
2022-12-24T21:46:30.498Z,91.11
2022-12-24T21:49:28.042Z,92.02
2022-12-24T21:51:57.433Z,93.00
2022-12-24T21:54:27.554Z,92.51
2022-12-24T21:57:14.384Z,92.42
2022-12-24T21:59:42.963Z,91.68
2022-12-24T22:02:13.021Z,91.56
2022-12-24T22:04:42.365Z,91.82
2022-12-24T22:07:39.249Z,91.88
2022-12-24T22:10:26.624Z,91.41
2022-12-24T22:12:55.019Z,90.91
2022-12-24T22:15:23.272Z,91.97
2022-12-24T22:17:51.314Z,91.48
2022-12-24T22:20:19.838Z,92.33
2022-12-24T22:22:49.978Z,92.20
2022-12-24T22:25:18.829Z,91.61
2022-12-24T22:27:46.929Z,91.60
2022-12-24T22:30:15.158Z,92.00
2022-12-24T22:32:43.077Z,91.90
2022-12-24T22:35:12.149Z,91.52
2022-12-24T22:37:40.240Z,91.96
2022-12-24T22:40:12.197Z,91.59
2022-12-24T22:42:41.010Z,92.27
2022-12-24T22:45:14.671Z,91.59
2022-12-24T22:47:46.635Z,91.60
2022-12-24T22:50:15.005Z,91.66
2022-12-24T22:52:43.273Z,92.04
2022-12-24T22:55:12.533Z,91.97
2022-12-24T22:57:40.476Z,91.67
2022-12-24T23:00:14.230Z,91.32
2022-12-24T23:02:42.512Z,92.00
2022-12-24T23:05:15.018Z,91.99
2022-12-24T23:07:43.109Z,91.53
2022-12-24T23:10:12.396Z,91.33
2022-12-24T23:12:57.987Z,91.00
2022-12-24T23:15:26.343Z,90.32
2022-12-24T23:17:54.500Z,91.37
2022-12-24T23:20:22.947Z,91.46
2022-12-24T23:22:51.107Z,92.62
2022-12-24T23:25:21.045Z,92.60
2022-12-24T23:27:48.974Z,91.79
2022-12-24T23:30:18.096Z,91.38
2022-12-24T23:32:46.080Z,90.63
2022-12-24T23:35:14.408Z,91.17
2022-12-24T23:37:42.429Z,91.72
2022-12-24T23:40:11.836Z,92.50
2022-12-24T23:42:41.352Z,92.23
2022-12-24T23:45:10.858Z,93.41
2022-12-24T23:47:38.837Z,93.66
2022-12-24T23:50:08.642Z,92.09
2022-12-24T23:52:36.666Z,91.34
2022-12-24T23:55:07.357Z,92.26
2022-12-24T23:57:36.044Z,92.87
